TBPB

Sir Grantley Adams International Airport

Bridgetown, Barbados
TAF TBPB 211700Z 2118/2218 11016KT 9999 FEW012CB SCT016 PROB30 TEMPO 2118/2124 SHRA BKN014 BKN036
Issued Valid From Valid To
Jun-21 @ 17:00 UTC
(an hour ago)
Jun-21 @ 18:00 UTC
(13 minutes ago)
Jun-22 @ 18:00 UTC
(in 24 hours)
Jun-21 @ 18:00 to Jun-22 @ 18:00
TAF TBPB 211700Z 2118/2218 11016KT 9999 FEW012CB SCT016
Wind Visibility Clouds
110° at 16 knots 10,000+ meters
  • Few at 1,200' AGL
  • Scattered at 1,600' AGL
Temporary  (Probability 30%) Jun-21 @ 18:00 to Jun-22 @ 00:00
PROB30 TEMPO 2118/2124 SHRA BKN014 BKN036
Clouds Conditions
  • Broken at 1,400' AGL
  • Broken at 3,600' AGL
  • Rain
TAF TBPB 211700Z 2118/2218 11016KT 9999 FEW012CB SCT016 PROB30 TEMPO 2118/2124 SHRA BKN014 BKN036
Issued Jun-21 @ 17:00 UTC
(an hour ago)
Valid From Jun-21 @ 18:00 UTC
(13 minutes ago)
Valid To Jun-22 @ 18:00 UTC
(in 24 hours)
Jun-21 @ 18:00 - Jun-22 @ 18:00
Wind Visibility
110° at 16 knots 10,000+ meters
Clouds
  • Few at 1,200' AGL
  • Scattered at 1,600' AGL
Probability 30% Temporary Jun-21 @ 18:00 - Jun-22 @ 00:00
Clouds
  • Broken at 1,400' AGL
  • Broken at 3,600' AGL
Conditions
  • Rain